createdAt,value
2022-09-01T00:00:54.674Z,98699.56
2022-09-01T00:01:56.868Z,98693.03
2022-09-01T00:02:58.503Z,98694.09
2022-09-01T00:04:04.272Z,98693.38
2022-09-01T00:05:07.460Z,98691.66
2022-09-01T00:06:10.269Z,98693.13
2022-09-01T00:07:13.990Z,98690.91
2022-09-01T00:08:15.507Z,98697.44
2022-09-01T00:09:22.422Z,98693.63
2022-09-01T00:10:24.115Z,98697.78
2022-09-01T00:11:27.611Z,98701.09
2022-09-01T00:12:30.770Z,98692.69
2022-09-01T00:13:33.922Z,98693.53
2022-09-01T00:14:41.542Z,98689.88
2022-09-01T00:15:43.620Z,98694.47
2022-09-01T00:16:45.183Z,98691.47
2022-09-01T00:17:49.381Z,98699.50
2022-09-01T00:18:53.406Z,98692.66
2022-09-01T00:19:54.962Z,98693.41
2022-09-01T00:20:59.207Z,98694.53
2022-09-01T00:22:01.784Z,98692.56
2022-09-01T00:23:03.503Z,98680.72
2022-09-01T00:24:05.725Z,98684.19
2022-09-01T00:25:08.150Z,98687.63
2022-09-01T00:26:09.709Z,98681.88
2022-09-01T00:27:11.574Z,98689.50
2022-09-01T00:28:14.506Z,98685.66
2022-09-01T00:29:16.242Z,98686.06
2022-09-01T00:30:21.962Z,98686.22
2022-09-01T00:31:24.478Z,98687.38
2022-09-01T00:32:26.761Z,98681.56
2022-09-01T00:33:28.776Z,98685.75
2022-09-01T00:34:31.183Z,98685.13
2022-09-01T00:35:37.089Z,98681.75
2022-09-01T00:36:39.040Z,98685.22
2022-09-01T00:37:40.696Z,98684.47
2022-09-01T00:38:42.835Z,98689.72
2022-09-01T00:39:44.383Z,98687.47
2022-09-01T00:40:46.016Z,98682.53
2022-09-01T00:41:47.988Z,98685.97
2022-09-01T00:42:49.815Z,98687.91
2022-09-01T00:44:00.180Z,98685.22
2022-09-01T00:45:01.644Z,98685.22
2022-09-01T00:46:04.652Z,98687.53
2022-09-01T00:47:07.114Z,98684.13
2022-09-01T00:48:09.485Z,98691.00
2022-09-01T00:49:17.761Z,98693.25
2022-09-01T00:50:20.847Z,98686.78
2022-09-01T00:51:22.691Z,98690.91
2022-09-01T00:52:48.197Z,98682.84
2022-09-01T00:53:49.992Z,98685.13
2022-09-01T00:54:58.136Z,98686.38
2022-09-01T00:56:00.525Z,98684.81
2022-09-01T00:57:04.266Z,98685.63
2022-09-01T00:58:19.456Z,98683.72
2022-09-01T00:59:23.738Z,98680.66
2022-09-01T01:00:29.878Z,98689.06
2022-09-01T01:01:31.600Z,98674.56
2022-09-01T01:02:33.424Z,98686.03
2022-09-01T01:03:35.922Z,98680.31
2022-09-01T01:04:37.561Z,98676.13
2022-09-01T01:05:46.766Z,98677.28
2022-09-01T01:06:58.783Z,98680.34
2022-09-01T01:08:03.861Z,98682.97
2022-09-01T01:09:05.631Z,98677.69
2022-09-01T01:10:07.668Z,98677.31
2022-09-01T01:11:19.614Z,98678.47
2022-09-01T01:12:21.284Z,98679.63
2022-09-01T01:13:26.025Z,98675.06
2022-09-01T01:14:31.957Z,98678.41
2022-09-01T01:15:33.634Z,98679.91
2022-09-01T01:16:35.923Z,98680.66
2022-09-01T01:17:37.587Z,98676.47
2022-09-01T01:18:39.387Z,98674.19
2022-09-01T01:20:07.151Z,98674.19
2022-09-01T01:21:43.376Z,98675.47
2022-09-01T01:23:03.601Z,98681.88
2022-09-01T01:24:23.470Z,98676.19
2022-09-01T01:25:25.571Z,98680.81
2022-09-01T01:26:27.297Z,98676.66
2022-09-01T01:27:33.711Z,98676.28
2022-09-01T01:28:44.749Z,98680.06
2022-09-01T01:29:47.712Z,98678.31
2022-09-01T01:30:52.664Z,98681.03
2022-09-01T01:31:54.325Z,98678.31
2022-09-01T01:32:58.396Z,98675.31
2022-09-01T01:34:01.101Z,98679.47
2022-09-01T01:35:05.875Z,98673.78
2022-09-01T01:36:14.268Z,98682.13
2022-09-01T01:37:15.756Z,98680.63
2022-09-01T01:38:20.026Z,98674.47
2022-09-01T01:39:28.710Z,98680.63
2022-09-01T01:40:30.975Z,98681.38
2022-09-01T01:41:35.480Z,98684.44
2022-09-01T01:42:37.932Z,98676.88
2022-09-01T01:43:40.702Z,98672.69
2022-09-01T01:44:42.589Z,98684.09
2022-09-01T01:45:44.122Z,98676.81
2022-09-01T01:46:50.267Z,98683.31
2022-09-01T01:47:53.550Z,98682.19
2022-09-01T01:48:55.818Z,98679.91
2022-09-01T01:49:57.946Z,98682.22
2022-09-01T01:50:59.673Z,98676.88
2022-09-01T01:52:01.662Z,98677.63
2022-09-01T01:53:10.942Z,98674.19
2022-09-01T01:54:14.383Z,98679.06
2022-09-01T01:55:19.328Z,98672.59
2022-09-01T01:56:25.522Z,98669.56
2022-09-01T01:57:31.897Z,98676.81
2022-09-01T01:58:34.900Z,98672.22
2022-09-01T01:59:38.963Z,98667.63
2022-09-01T02:00:42.887Z,98672.91
2022-09-01T02:01:49.389Z,98674.88
2022-09-01T02:02:54.794Z,98668.44
2022-09-01T02:04:00.234Z,98671.47
2022-09-01T02:05:01.961Z,98665.41
2022-09-01T02:06:07.124Z,98665.78
2022-09-01T02:07:11.964Z,98673.84
2022-09-01T02:08:15.652Z,98662.06
2022-09-01T02:09:21.081Z,98666.28
2022-09-01T02:10:24.737Z,98667.03
2022-09-01T02:11:26.750Z,98664.38
2022-09-01T02:12:28.269Z,98666.22
2022-09-01T02:13:32.798Z,98668.50
2022-09-01T02:14:34.623Z,98659.72
2022-09-01T02:15:45.601Z,98658.97
2022-09-01T02:16:47.704Z,98664.31
2022-09-01T02:17:49.704Z,98662.78
2022-09-01T02:18:51.535Z,98670.44
2022-09-01T02:19:57.060Z,98659.38
2022-09-01T02:21:01.557Z,98664.38
2022-09-01T02:22:03.054Z,98666.69
2022-09-01T02:23:10.848Z,98659.88
2022-09-01T02:24:12.901Z,98661.78
2022-09-01T02:25:16.939Z,98662.16
2022-09-01T02:26:19.053Z,98657.22
2022-09-01T02:27:25.864Z,98660.66
2022-09-01T02:28:28.701Z,98654.19
2022-09-01T02:29:30.272Z,98653.44
2022-09-01T02:30:33.467Z,98650.38
2022-09-01T02:31:39.303Z,98656.84
2022-09-01T02:32:41.884Z,98662.19
2022-09-01T02:33:47.154Z,98655.69
2022-09-01T02:34:53.676Z,98647.00
2022-09-01T02:36:00.926Z,98651.56
2022-09-01T02:37:02.941Z,98645.09
2022-09-01T02:38:05.505Z,98655.75
2022-09-01T02:39:08.129Z,98645.88
2022-09-01T02:40:10.568Z,98649.66
2022-09-01T02:41:14.677Z,98647.41
2022-09-01T02:42:16.322Z,98645.91
2022-09-01T02:43:20.575Z,98648.19
2022-09-01T02:44:23.091Z,98652.38
2022-09-01T02:45:24.736Z,98643.63
2022-09-01T02:46:26.593Z,98649.31
2022-09-01T02:47:28.560Z,98648.53
2022-09-01T02:48:37.232Z,98645.47
2022-09-01T02:49:40.745Z,98643.97
2022-09-01T02:50:42.263Z,98645.88
2022-09-01T02:51:46.042Z,98641.66
2022-09-01T02:52:52.312Z,98640.09
2022-09-01T02:53:54.278Z,98639.72
2022-09-01T02:54:55.750Z,98642.78
2022-09-01T02:55:59.454Z,98638.22
2022-09-01T02:57:01.487Z,98638.22
2022-09-01T02:58:03.717Z,98634.84
2022-09-01T02:59:05.695Z,98640.16
2022-09-01T03:00:20.699Z,98630.28
2022-09-01T03:01:25.277Z,98631.81
2022-09-01T03:02:28.827Z,98638.28
2022-09-01T03:03:30.280Z,98632.19
2022-09-01T03:04:35.152Z,98637.88
2022-09-01T03:05:39.190Z,98638.69
2022-09-01T03:06:41.226Z,98644.38
2022-09-01T03:07:42.683Z,98632.59
2022-09-01T03:08:44.146Z,98635.25
2022-09-01T03:09:45.713Z,98642.13
2022-09-01T03:10:47.366Z,98641.34
2022-09-01T03:11:51.868Z,98637.19
2022-09-01T03:12:54.786Z,98629.94
2022-09-01T03:13:56.697Z,98640.59
2022-09-01T03:14:58.484Z,98633.00
2022-09-01T03:15:59.971Z,98634.91
2022-09-01T03:17:01.932Z,98632.63
2022-09-01T03:18:05.549Z,98630.38
2022-09-01T03:19:09.478Z,98632.25
2022-09-01T03:20:11.197Z,98626.16
2022-09-01T03:21:17.785Z,98632.63
2022-09-01T03:22:19.687Z,98629.59
2022-09-01T03:23:21.210Z,98629.59
2022-09-01T03:24:23.167Z,98629.97
2022-09-01T03:25:25.467Z,98628.81
2022-09-01T03:26:27.057Z,98629.22
2022-09-01T03:27:28.994Z,98625.78
2022-09-01T03:28:30.860Z,98620.09
2022-09-01T03:29:32.376Z,98628.47
2022-09-01T03:30:38.941Z,98625.41
2022-09-01T03:31:40.477Z,98628.06
2022-09-01T03:32:42.382Z,98623.91
2022-09-01T03:33:44.034Z,98629.22
2022-09-01T03:34:45.519Z,98624.66
2022-09-01T03:35:47.972Z,98629.22
2022-09-01T03:36:50.907Z,98626.94
2022-09-01T03:37:52.982Z,98633.34
2022-09-01T03:38:55.855Z,98628.41
2022-09-01T03:39:58.162Z,98634.88
2022-09-01T03:41:03.712Z,98636.03
2022-09-01T03:42:05.369Z,98636.00
2022-09-01T03:43:14.377Z,98637.16
2022-09-01T03:44:16.457Z,98636.03
2022-09-01T03:45:20.408Z,98634.16
2022-09-01T03:46:22.740Z,98639.09
2022-09-01T03:47:24.251Z,98633.41
2022-09-01T03:48:29.405Z,98633.03
2022-09-01T03:49:30.862Z,98633.78
2022-09-01T03:50:32.585Z,98628.81
2022-09-01T03:51:34.964Z,98636.81
2022-09-01T03:52:36.998Z,98634.50
2022-09-01T03:53:39.517Z,98633.34
2022-09-01T03:54:41.186Z,98636.00
2022-09-01T03:55:45.512Z,98631.84
2022-09-01T03:56:47.779Z,98637.53
2022-09-01T03:57:51.136Z,98631.88
2022-09-01T03:58:54.929Z,98631.88
2022-09-01T03:59:56.852Z,98633.00
2022-09-01T04:01:01.954Z,98631.09
2022-09-01T04:02:03.944Z,98635.63
2022-09-01T04:03:07.830Z,98632.97
2022-09-01T04:04:14.230Z,98635.63
2022-09-01T04:05:16.201Z,98630.69
2022-09-01T04:06:19.410Z,98632.56
2022-09-01T04:07:20.896Z,98636.00
2022-09-01T04:08:33.062Z,98632.56
2022-09-01T04:09:35.317Z,98636.38
2022-09-01T04:10:47.836Z,98631.03
2022-09-01T04:11:55.816Z,98628.75
2022-09-01T04:12:59.102Z,98643.94
2022-09-01T04:14:01.750Z,98640.50
2022-09-01T04:15:04.053Z,98640.50
2022-09-01T04:16:10.774Z,98631.03
2022-09-01T04:17:31.107Z,98626.09
2022-09-01T04:18:32.894Z,98633.28
2022-09-01T04:19:36.985Z,98630.28
2022-09-01T04:20:48.552Z,98627.63
2022-09-01T04:21:51.717Z,98629.53
2022-09-01T04:22:53.508Z,98632.97
2022-09-01T04:23:58.387Z,98631.44
2022-09-01T04:24:59.872Z,98632.56
2022-09-01T04:26:09.070Z,98635.97
2022-09-01T04:27:11.943Z,98632.97
2022-09-01T04:28:22.981Z,98630.69
2022-09-01T04:29:28.708Z,98629.16
2022-09-01T04:30:33.492Z,98627.66
2022-09-01T04:31:37.988Z,98628.41
2022-09-01T04:32:40.343Z,98620.03
2022-09-01T04:33:44.941Z,98628.75
2022-09-01T04:34:46.423Z,98627.66
2022-09-01T04:35:48.122Z,98631.44
2022-09-01T04:36:55.452Z,98634.50
2022-09-01T04:37:56.901Z,98631.47
2022-09-01T04:39:00.983Z,98632.22
2022-09-01T04:40:03.676Z,98621.97
2022-09-01T04:41:06.797Z,98635.63
2022-09-01T04:42:09.362Z,98630.31
2022-09-01T04:43:11.010Z,98634.50
2022-09-01T04:44:16.304Z,98638.28
2022-09-01T04:45:21.193Z,98640.19
2022-09-01T04:46:23.381Z,98634.88
2022-09-01T04:47:35.357Z,98637.13
2022-09-01T04:48:38.444Z,98644.75
2022-09-01T04:49:40.286Z,98642.88
2022-09-01T04:50:41.781Z,98642.09
2022-09-01T04:51:51.204Z,98639.84
2022-09-01T04:52:56.375Z,98634.53
2022-09-01T04:53:58.350Z,98646.66
2022-09-01T04:54:59.795Z,98644.44
2022-09-01T04:56:04.588Z,98642.53
2022-09-01T04:57:07.077Z,98645.16
2022-09-01T04:58:10.314Z,98653.09
2022-09-01T04:59:14.433Z,98651.59
2022-09-01T05:00:22.641Z,98650.84
2022-09-01T05:01:26.761Z,98655.38
2022-09-01T05:02:29.016Z,98653.47
2022-09-01T05:03:32.200Z,98651.94
2022-09-01T05:04:34.289Z,98657.66
2022-09-01T05:05:39.808Z,98653.88
2022-09-01T05:06:44.016Z,98653.09
2022-09-01T05:07:45.530Z,98651.22
2022-09-01T05:08:47.006Z,98643.22
2022-09-01T05:09:49.557Z,98648.19
2022-09-01T05:10:53.316Z,98653.84
2022-09-01T05:11:56.439Z,98648.19
2022-09-01T05:12:57.945Z,98643.28
2022-09-01T05:13:59.438Z,98644.38
2022-09-01T05:15:06.667Z,98654.28
2022-09-01T05:16:12.944Z,98653.50
2022-09-01T05:17:15.058Z,98647.78
2022-09-01T05:18:27.778Z,98647.78
2022-09-01T05:19:30.060Z,98654.63
2022-09-01T05:20:32.028Z,98653.47
2022-09-01T05:21:33.536Z,98660.69
2022-09-01T05:22:35.653Z,98655.75
2022-09-01T05:23:40.387Z,98653.09
2022-09-01T05:24:42.468Z,98648.91
2022-09-01T05:25:44.605Z,98657.66
2022-09-01T05:26:47.495Z,98658.06
2022-09-01T05:27:52.771Z,98658.06
2022-09-01T05:29:01.551Z,98658.81
2022-09-01T05:30:08.825Z,98658.44
2022-09-01T05:31:10.611Z,98649.72
2022-09-01T05:32:12.661Z,98655.03
2022-09-01T05:33:21.755Z,98656.19
2022-09-01T05:34:27.152Z,98660.38
2022-09-01T05:35:31.684Z,98661.91
2022-09-01T05:36:34.676Z,98660.75
2022-09-01T05:37:40.455Z,98659.63
2022-09-01T05:38:42.308Z,98658.47
2022-09-01T05:39:44.279Z,98653.91
2022-09-01T05:40:56.399Z,98662.28
2022-09-01T05:41:59.075Z,98661.13
2022-09-01T05:43:01.019Z,98666.44
2022-09-01T05:44:08.145Z,98663.78
2022-09-01T05:45:11.868Z,98666.06
2022-09-01T05:46:16.907Z,98661.47
2022-09-01T05:47:20.989Z,98663.38
2022-09-01T05:48:23.707Z,98665.69
2022-09-01T05:49:26.863Z,98670.25
2022-09-01T05:50:28.546Z,98660.38
2022-09-01T05:51:44.312Z,98661.13
2022-09-01T05:52:48.113Z,98670.63
2022-09-01T05:53:55.111Z,98662.63
2022-09-01T05:54:57.841Z,98665.31
2022-09-01T05:56:00.469Z,98667.22
2022-09-01T05:57:23.315Z,98671.38
2022-09-01T05:58:26.843Z,98666.06
2022-09-01T05:59:31.570Z,98671.75
2022-09-01T06:00:34.826Z,98668.31
2022-09-01T06:01:41.017Z,98664.91
2022-09-01T06:02:43.334Z,98673.63
2022-09-01T06:03:45.043Z,98679.34
2022-09-01T06:04:47.153Z,98674.78
2022-09-01T06:05:52.775Z,98682.00
2022-09-01T06:07:13.635Z,98672.06
2022-09-01T06:08:18.913Z,98678.13
2022-09-01T06:09:23.378Z,98676.59
2022-09-01T06:10:24.920Z,98680.41
2022-09-01T06:11:26.944Z,98684.22
2022-09-01T06:12:29.341Z,98678.09
2022-09-01T06:13:30.773Z,98685.38
2022-09-01T06:14:32.665Z,98677.34
2022-09-01T06:15:39.003Z,98683.03
2022-09-01T06:16:40.525Z,98684.94
2022-09-01T06:17:42.038Z,98684.94
2022-09-01T06:18:43.793Z,98678.44
2022-09-01T06:19:46.009Z,98682.59
2022-09-01T06:20:49.527Z,98682.22
2022-09-01T06:21:51.349Z,98678.72
2022-09-01T06:22:53.626Z,98676.81
2022-09-01T06:23:57.254Z,98676.44
2022-09-01T06:25:02.384Z,98675.28
2022-09-01T06:26:05.580Z,98678.38
2022-09-01T06:27:09.928Z,98681.38
2022-09-01T06:28:13.103Z,98680.22
2022-09-01T06:29:15.496Z,98680.28
2022-09-01T06:30:23.855Z,98680.91
2022-09-01T06:31:30.174Z,98685.47
2022-09-01T06:32:33.765Z,98683.53
2022-09-01T06:33:36.115Z,98684.63
2022-09-01T06:34:43.560Z,98687.22
2022-09-01T06:35:47.171Z,98689.81
2022-09-01T06:36:51.272Z,98692.06
2022-09-01T06:37:53.171Z,98686.59
2022-09-01T06:38:55.233Z,98682.75
2022-09-01T06:39:57.601Z,98686.44
2022-09-01T06:41:04.275Z,98686.25
2022-09-01T06:42:06.794Z,98683.56
2022-09-01T06:43:09.961Z,98684.41
2022-09-01T06:44:14.560Z,98682.66
2022-09-01T06:45:18.417Z,98692.09
2022-09-01T06:46:21.892Z,98683.69
2022-09-01T06:47:24.304Z,98687.75
2022-09-01T06:48:25.850Z,98685.13
2022-09-01T06:49:33.168Z,98688.06
2022-09-01T06:51:56.266Z,98690.19
2022-09-01T06:54:35.678Z,98689.53
2022-09-01T06:55:38.581Z,98697.94
2022-09-01T06:56:44.912Z,98697.72
2022-09-01T06:58:09.755Z,98692.63
2022-09-01T06:59:15.639Z,98688.84
2022-09-01T07:00:21.144Z,98699.41
2022-09-01T07:01:24.148Z,98695.97
2022-09-01T07:03:51.467Z,98698.47
2022-09-01T07:04:53.498Z,98692.38
2022-09-01T07:06:01.393Z,98694.66
2022-09-01T07:08:27.537Z,98695.84
2022-09-01T07:09:47.682Z,98699.69
2022-09-01T07:12:30.933Z,98703.06
2022-09-01T07:13:35.537Z,98699.13
2022-09-01T07:17:26.458Z,98705.31
2022-09-01T07:18:29.379Z,98700.53
2022-09-01T07:19:48.882Z,98702.38
2022-09-01T07:23:47.323Z,98706.59
2022-09-01T07:25:16.743Z,98712.06
2022-09-01T07:27:50.588Z,98708.84
2022-09-01T07:29:01.129Z,98705.75
2022-09-01T07:30:03.466Z,98706.72
2022-09-01T07:32:47.616Z,98705.75
2022-09-01T07:35:14.677Z,98708.28
2022-09-01T07:36:26.999Z,98709.38
2022-09-01T07:42:32.152Z,98706.06
2022-09-01T07:42:55.517Z,98709.69
2022-09-01T07:42:56.480Z,98702.34
2022-09-01T07:43:28.297Z,98715.75
2022-09-01T07:44:33.404Z,98709.97
2022-09-01T07:45:47.132Z,98717.56
2022-09-01T07:47:19.582Z,98712.09
2022-09-01T07:52:25.694Z,98708.41
2022-09-01T07:53:33.329Z,98716.91
2022-09-01T07:54:37.287Z,98718.59
2022-09-01T07:55:44.057Z,98710.97
2022-09-01T07:56:45.786Z,98714.22
2022-09-01T07:57:47.525Z,98718.56
2022-09-01T07:58:50.807Z,98712.16
2022-09-01T07:59:55.687Z,98721.13
2022-09-01T08:01:00.108Z,98713.38
2022-09-01T08:02:05.266Z,98719.34
2022-09-01T08:03:06.976Z,98720.50
2022-09-01T08:04:08.649Z,98712.56
2022-09-01T08:05:14.436Z,98713.25
2022-09-01T08:06:19.458Z,98711.13
2022-09-01T08:07:20.975Z,98710.13
2022-09-01T08:08:26.387Z,98711.63
2022-09-01T08:09:37.546Z,98710.94
2022-09-01T08:10:42.096Z,98708.94
2022-09-01T08:12:01.558Z,98709.44
2022-09-01T08:13:03.536Z,98713.47
2022-09-01T08:14:06.129Z,98718.84
2022-09-01T08:16:39.324Z,98715.13
2022-09-01T08:17:58.365Z,98720.44
2022-09-01T08:19:00.246Z,98718.03
2022-09-01T08:20:03.214Z,98712.28
2022-09-01T08:21:10.033Z,98715.81
2022-09-01T08:22:11.486Z,98720.06
2022-09-01T08:23:18.362Z,98717.09
2022-09-01T08:24:19.847Z,98717.16
2022-09-01T08:25:24.744Z,98716.44
2022-09-01T08:26:27.386Z,98709.88
2022-09-01T08:27:28.951Z,98712.28
2022-09-01T08:28:30.580Z,98719.41
2022-09-01T08:29:32.326Z,98718.47
2022-09-01T08:30:35.706Z,98714.06
2022-09-01T08:31:37.384Z,98721.13
2022-09-01T08:32:42.279Z,98719.44
2022-09-01T08:33:47.353Z,98726.22
2022-09-01T08:34:48.848Z,98720.81
2022-09-01T08:35:50.379Z,98727.63
2022-09-01T08:36:52.787Z,98724.41
2022-09-01T08:37:54.303Z,98716.81
2022-09-01T08:38:55.911Z,98731.63
2022-09-01T08:39:57.451Z,98721.41
2022-09-01T08:40:59.583Z,98725.81
2022-09-01T08:42:24.725Z,98725.72
2022-09-01T08:43:45.523Z,98726.97
2022-09-01T08:44:56.915Z,98727.84
2022-09-01T08:46:22.887Z,98724.81
2022-09-01T08:47:35.449Z,98733.31
2022-09-01T08:50:20.683Z,98732.09
2022-09-01T08:51:25.074Z,98730.66
2022-09-01T08:52:33.949Z,98732.91
2022-09-01T08:53:41.704Z,98729.72
2022-09-01T08:54:51.028Z,98729.84
2022-09-01T08:55:56.694Z,98727.53
2022-09-01T08:57:05.283Z,98731.03
2022-09-01T08:58:10.390Z,98726.03
2022-09-01T08:59:12.824Z,98727.53
2022-09-01T09:00:20.245Z,98725.81
2022-09-01T09:01:55.343Z,98729.69
2022-09-01T09:03:47.670Z,98730.53
2022-09-01T09:04:55.180Z,98735.28
2022-09-01T09:06:21.759Z,98724.16
2022-09-01T09:08:08.282Z,98726.69
2022-09-01T09:09:10.595Z,98721.69
2022-09-01T09:10:19.408Z,98722.22
2022-09-01T09:11:34.925Z,98725.84
2022-09-01T09:13:03.380Z,98718.91
2022-09-01T09:14:26.092Z,98726.03
2022-09-01T09:16:07.376Z,98721.53
2022-09-01T09:17:09.796Z,98726.72
2022-09-01T09:18:40.007Z,98727.97
2022-09-01T09:19:44.590Z,98724.13
2022-09-01T09:20:46.116Z,98725.72
2022-09-01T09:21:50.783Z,98719.41
2022-09-01T09:22:53.766Z,98715.56
2022-09-01T09:24:06.754Z,98722.03
2022-09-01T09:25:19.207Z,98718.72
2022-09-01T09:26:22.296Z,98714.19
2022-09-01T09:27:30.124Z,98708.00
2022-09-01T09:28:31.672Z,98715.22
2022-09-01T09:29:33.180Z,98717.16
2022-09-01T09:30:34.982Z,98708.25
2022-09-01T09:31:49.983Z,98715.72
2022-09-01T09:34:27.708Z,98713.97
2022-09-01T09:35:37.200Z,98708.00
2022-09-01T09:36:38.678Z,98709.44
2022-09-01T09:37:40.146Z,98707.94
2022-09-01T09:38:41.772Z,98714.63
2022-09-01T09:39:44.448Z,98713.03
2022-09-01T09:41:16.501Z,98710.53
2022-09-01T09:42:20.140Z,98714.81
2022-09-01T09:43:25.482Z,98715.97
2022-09-01T09:44:32.891Z,98708.94
2022-09-01T09:45:42.047Z,98708.94
2022-09-01T09:46:47.464Z,98707.41
2022-09-01T09:47:49.578Z,98697.59
2022-09-01T09:49:09.379Z,98713.78
2022-09-01T09:50:23.038Z,98714.94
2022-09-01T09:51:28.894Z,98711.19
2022-09-01T09:52:31.194Z,98711.78
2022-09-01T09:53:32.898Z,98711.63
2022-09-01T09:54:37.023Z,98703.56
2022-09-01T09:56:10.363Z,98708.34
2022-09-01T09:57:16.159Z,98709.59
2022-09-01T09:58:17.786Z,98707.56
2022-09-01T09:59:57.226Z,98702.19
2022-09-01T10:01:05.180Z,98704.06
2022-09-01T10:02:28.398Z,98711.69
2022-09-01T10:03:51.336Z,98702.06
2022-09-01T10:04:55.816Z,98705.13
2022-09-01T10:05:57.576Z,98702.97
2022-09-01T10:06:59.154Z,98702.38
2022-09-01T10:08:01.034Z,98700.34
2022-09-01T10:09:15.025Z,98702.19
2022-09-01T10:10:40.415Z,98700.09
2022-09-01T10:11:51.485Z,98701.06
2022-09-01T10:12:54.338Z,98704.75
2022-09-01T10:13:56.086Z,98699.38
2022-09-01T10:15:12.732Z,98696.63
2022-09-01T10:16:32.027Z,98692.16
2022-09-01T10:17:43.696Z,98694.09
2022-09-01T10:18:46.566Z,98688.13
2022-09-01T10:19:55.758Z,98697.28
2022-09-01T10:20:57.212Z,98691.31
2022-09-01T10:21:58.753Z,98692.97
2022-09-01T10:23:03.813Z,98697.69
2022-09-01T10:24:30.949Z,98694.66
2022-09-01T10:25:35.764Z,98693.06
2022-09-01T10:26:41.018Z,98691.88
2022-09-01T10:27:47.576Z,98701.63
2022-09-01T10:29:25.629Z,98695.94
2022-09-01T10:30:29.228Z,98695.66
2022-09-01T10:31:32.747Z,98695.84
2022-09-01T10:32:49.196Z,98689.47
2022-09-01T10:33:53.051Z,98696.19
2022-09-01T10:34:56.171Z,98691.31
2022-09-01T10:36:01.222Z,98689.88
2022-09-01T10:37:11.408Z,98695.38
2022-09-01T10:38:20.652Z,98694.50
2022-09-01T10:39:28.432Z,98694.91
2022-09-01T10:40:44.593Z,98691.41
2022-09-01T10:42:00.194Z,98687.88
2022-09-01T10:43:30.677Z,98683.84
2022-09-01T10:44:56.247Z,98687.38
2022-09-01T10:46:06.002Z,98684.19
2022-09-01T10:47:30.092Z,98684.69
2022-09-01T10:48:45.485Z,98685.50
2022-09-01T10:49:47.979Z,98685.19
2022-09-01T10:51:09.696Z,98675.03
2022-09-01T10:52:41.199Z,98681.72
2022-09-01T10:53:54.237Z,98685.63
2022-09-01T10:55:01.191Z,98684.31
2022-09-01T10:56:20.138Z,98680.13
2022-09-01T10:57:42.389Z,98678.28
2022-09-01T11:00:41.473Z,98684.66
2022-09-01T11:01:48.898Z,98677.00
2022-09-01T11:04:37.282Z,98681.16
2022-09-01T11:06:13.201Z,98679.66
2022-09-01T11:07:29.653Z,98681.56
2022-09-01T11:08:57.003Z,98676.81
2022-09-01T11:10:36.083Z,98679.41
2022-09-01T11:11:48.913Z,98675.09
2022-09-01T11:13:04.828Z,98673.34
2022-09-01T11:14:22.947Z,98683.25
2022-09-01T11:15:41.220Z,98678.63
2022-09-01T11:16:47.806Z,98675.56
2022-09-01T11:17:50.589Z,98678.81
2022-09-01T11:18:52.574Z,98677.53
2022-09-01T11:19:55.522Z,98678.38
2022-09-01T11:21:23.927Z,98678.06
2022-09-01T11:22:28.265Z,98679.81
2022-09-01T11:23:31.425Z,98680.91
2022-09-01T11:24:38.867Z,98682.09
2022-09-01T11:25:48.502Z,98678.38
2022-09-01T11:27:13.007Z,98681.81
2022-09-01T11:28:23.822Z,98679.19
2022-09-01T11:29:55.922Z,98682.00
2022-09-01T11:31:06.603Z,98683.16
2022-09-01T11:32:09.172Z,98674.44
2022-09-01T11:33:16.560Z,98673.53
2022-09-01T11:34:20.427Z,98676.13
2022-09-01T11:35:25.402Z,98680.34
2022-09-01T11:36:37.743Z,98677.38
2022-09-01T11:37:40.326Z,98672.50
2022-09-01T11:38:55.228Z,98679.63
2022-09-01T11:40:07.778Z,98667.91
2022-09-01T11:41:09.416Z,98669.72
2022-09-01T11:42:32.394Z,98668.81
2022-09-01T11:43:35.929Z,98673.94
2022-09-01T11:44:59.301Z,98665.56
2022-09-01T11:46:22.007Z,98662.19
2022-09-01T11:47:30.027Z,98671.84
2022-09-01T11:48:31.597Z,98669.31
2022-09-01T11:49:40.326Z,98668.66
2022-09-01T11:50:43.051Z,98667.47
2022-09-01T11:51:47.975Z,98665.38
2022-09-01T11:52:59.140Z,98671.00
2022-09-01T11:54:02.949Z,98666.31
2022-09-01T11:55:07.088Z,98665.81
2022-09-01T11:56:28.078Z,98663.59
2022-09-01T11:57:29.995Z,98665.78
2022-09-01T11:58:39.115Z,98660.94
2022-09-01T11:59:40.619Z,98665.19
2022-09-01T12:00:42.621Z,98664.88
2022-09-01T12:01:44.665Z,98657.66
2022-09-01T12:02:49.987Z,98655.06
2022-09-01T12:03:52.870Z,98657.16
2022-09-01T12:04:55.445Z,98662.28
2022-09-01T12:06:05.988Z,98658.19
2022-09-01T12:07:11.419Z,98669.59
2022-09-01T12:08:18.338Z,98660.84
2022-09-01T12:09:41.564Z,98662.63
2022-09-01T12:10:45.395Z,98664.31
2022-09-01T12:11:46.881Z,98657.44
2022-09-01T12:12:48.490Z,98659.25
2022-09-01T12:14:10.360Z,98660.34
2022-09-01T12:15:23.028Z,98655.88
2022-09-01T12:16:24.639Z,98664.13
2022-09-01T12:17:27.077Z,98660.94
2022-09-01T12:18:35.913Z,98664.22
2022-09-01T12:19:39.395Z,98652.88
2022-09-01T12:20:41.299Z,98655.38
2022-09-01T12:21:43.986Z,98661.34
2022-09-01T12:22:46.031Z,98657.56
2022-09-01T12:23:47.995Z,98658.75
2022-09-01T12:24:53.178Z,98658.41
2022-09-01T12:26:01.379Z,98648.81
2022-09-01T12:27:03.326Z,98658.78
2022-09-01T12:28:10.995Z,98652.06
2022-09-01T12:29:16.650Z,98658.63
2022-09-01T12:30:19.780Z,98653.53
2022-09-01T12:31:26.823Z,98651.69
2022-09-01T12:32:28.547Z,98647.16
2022-09-01T12:33:30.429Z,98651.09
2022-09-01T12:34:42.780Z,98649.84
2022-09-01T12:35:45.448Z,98654.28
2022-09-01T12:37:08.249Z,98652.94
2022-09-01T12:38:18.784Z,98651.69
2022-09-01T12:39:24.274Z,98651.03
2022-09-01T12:40:35.986Z,98653.81
2022-09-01T12:41:40.034Z,98653.78
2022-09-01T12:42:49.940Z,98653.28
2022-09-01T12:43:54.769Z,98652.59
2022-09-01T12:44:58.659Z,98647.34
2022-09-01T12:46:02.890Z,98653.47
2022-09-01T12:47:13.575Z,98643.81
2022-09-01T12:48:33.863Z,98648.53
2022-09-01T12:49:50.661Z,98646.97
2022-09-01T12:50:53.711Z,98648.34
2022-09-01T12:52:14.692Z,98643.44
2022-09-01T12:53:20.653Z,98639.09
2022-09-01T12:54:26.158Z,98646.16
2022-09-01T12:55:47.660Z,98642.81
2022-09-01T12:56:51.401Z,98645.56
2022-09-01T12:57:55.650Z,98636.97
2022-09-01T12:59:15.792Z,98639.34
2022-09-01T13:00:23.262Z,98641.41
2022-09-01T13:01:30.685Z,98647.97
2022-09-01T13:02:36.866Z,98639.25
2022-09-01T13:03:38.636Z,98639.19
2022-09-01T13:04:42.383Z,98645.03
2022-09-01T13:05:47.161Z,98637.13
2022-09-01T13:06:49.837Z,98642.72
2022-09-01T13:07:56.890Z,98639.47
2022-09-01T13:08:58.386Z,98632.22
2022-09-01T13:10:00.349Z,98642.03
2022-09-01T13:11:03.782Z,98638.72
2022-09-01T13:12:21.781Z,98643.88
2022-09-01T13:13:25.268Z,98633.75
2022-09-01T13:14:26.790Z,98637.50
2022-09-01T13:15:28.746Z,98645.22
2022-09-01T13:16:30.482Z,98626.97
2022-09-01T13:17:32.396Z,98628.97
2022-09-01T13:19:10.373Z,98633.31
2022-09-01T13:19:55.800Z,98631.72
2022-09-01T13:20:58.480Z,98628.28
2022-09-01T13:22:00.359Z,98620.13
2022-09-01T13:23:02.398Z,98629.16
2022-09-01T13:24:07.228Z,98627.22
2022-09-01T13:25:11.297Z,98623.88
2022-09-01T13:26:12.752Z,98626.56
2022-09-01T13:27:22.540Z,98627.41
2022-09-01T13:29:32.421Z,98626.16
2022-09-01T13:30:34.447Z,98620.22
2022-09-01T13:31:36.371Z,98622.81
2022-09-01T13:33:18.739Z,98624.13
2022-09-01T13:34:21.968Z,98625.88